createdAt,value
2023-03-06T00:00:53.904Z,86.44
2023-03-06T00:03:23.244Z,86.40
2023-03-06T00:05:51.827Z,86.41
2023-03-06T00:08:20.052Z,86.24
2023-03-06T00:10:48.221Z,86.73
2023-03-06T00:13:19.137Z,86.63
2023-03-06T00:15:48.715Z,86.64
2023-03-06T00:18:17.141Z,86.63
2023-03-06T00:20:45.517Z,86.66
2023-03-06T00:23:13.743Z,86.67
2023-03-06T00:25:45.956Z,86.92
2023-03-06T00:28:15.958Z,86.89
2023-03-06T00:30:46.246Z,86.92
2023-03-06T00:33:14.466Z,86.99
2023-03-06T00:35:42.757Z,87.12
2023-03-06T00:38:13.534Z,86.90
2023-03-06T00:40:41.748Z,87.14
2023-03-06T00:43:10.327Z,87.37
2023-03-06T00:45:38.657Z,87.24
2023-03-06T00:48:06.980Z,87.27
2023-03-06T00:50:35.768Z,87.37
2023-03-06T00:53:03.951Z,87.58
2023-03-06T00:55:33.709Z,87.65
2023-03-06T00:58:02.133Z,87.61
2023-03-06T01:00:30.713Z,87.70
2023-03-06T01:02:58.884Z,87.89
2023-03-06T01:05:27.307Z,87.78
2023-03-06T01:07:55.732Z,87.92
2023-03-06T01:10:24.010Z,87.98
2023-03-06T01:12:52.286Z,87.90
2023-03-06T01:15:21.376Z,87.87
2023-03-06T01:17:53.849Z,87.88
2023-03-06T01:20:22.337Z,87.98
2023-03-06T01:22:51.218Z,87.85
2023-03-06T01:25:19.491Z,87.94
2023-03-06T01:27:47.778Z,87.84
2023-03-06T01:30:16.447Z,88.01
2023-03-06T01:32:44.724Z,88.13
2023-03-06T01:35:13.306Z,88.16
2023-03-06T01:37:41.590Z,88.29
2023-03-06T01:40:11.798Z,88.49
2023-03-06T01:42:40.594Z,88.61
2023-03-06T01:45:35.005Z,88.52
2023-03-06T01:48:03.257Z,88.58
2023-03-06T01:50:31.732Z,88.51
2023-03-06T01:53:01.135Z,88.84
2023-03-06T01:55:33.397Z,88.91
2023-03-06T01:58:09.133Z,88.82
2023-03-06T02:00:38.254Z,88.75
2023-03-06T02:03:11.808Z,88.88
2023-03-06T02:05:42.167Z,88.86
2023-03-06T02:08:17.076Z,88.91
2023-03-06T02:11:14.915Z,88.94
2023-03-06T02:13:44.471Z,88.99
2023-03-06T02:16:14.998Z,89.01
2023-03-06T02:18:44.817Z,89.06
2023-03-06T02:21:20.458Z,89.25
2023-03-06T02:24:00.609Z,89.22
2023-03-06T02:26:29.794Z,89.35
2023-03-06T02:28:59.410Z,89.36
2023-03-06T02:31:31.632Z,89.37
2023-03-06T02:34:04.258Z,89.19
2023-03-06T02:36:35.926Z,89.21
2023-03-06T02:39:04.392Z,89.36
2023-03-06T02:41:32.895Z,89.42
2023-03-06T02:44:01.148Z,89.61
2023-03-06T02:46:30.724Z,89.60
2023-03-06T02:48:59.023Z,89.59
2023-03-06T02:51:27.297Z,89.81
2023-03-06T02:53:55.465Z,89.72
2023-03-06T02:56:23.640Z,89.80
2023-03-06T02:58:52.323Z,89.92
2023-03-06T03:01:21.425Z,89.79
2023-03-06T03:03:49.800Z,89.95
2023-03-06T03:06:18.169Z,89.97
2023-03-06T03:08:46.852Z,90.26
2023-03-06T03:11:15.433Z,90.22
2023-03-06T03:13:45.141Z,90.24
2023-03-06T03:16:18.096Z,90.29
2023-03-06T03:18:48.237Z,90.37
2023-03-06T03:21:18.365Z,90.48
2023-03-06T03:23:48.401Z,90.53
2023-03-06T03:26:20.214Z,90.70
2023-03-06T03:28:59.676Z,90.72
2023-03-06T03:31:28.510Z,90.76
2023-03-06T03:33:57.045Z,90.60
2023-03-06T03:36:26.241Z,90.66
2023-03-06T03:38:55.748Z,90.68
2023-03-06T03:41:24.441Z,90.63
2023-03-06T03:43:52.815Z,90.85
2023-03-06T03:46:21.843Z,90.76
2023-03-06T03:48:51.101Z,90.87
2023-03-06T03:51:19.582Z,90.92
2023-03-06T03:53:50.718Z,90.96
2023-03-06T03:56:21.043Z,91.08
2023-03-06T03:59:09.385Z,91.15
2023-03-06T04:01:43.127Z,91.16
2023-03-06T04:04:11.574Z,91.36
2023-03-06T04:06:40.248Z,91.41
2023-03-06T04:09:08.829Z,91.65
2023-03-06T04:11:37.720Z,91.65
2023-03-06T04:14:08.457Z,91.74
2023-03-06T04:16:37.236Z,91.68
2023-03-06T04:19:05.623Z,91.80
2023-03-06T04:21:34.400Z,92.05
2023-03-06T04:24:02.573Z,91.86
2023-03-06T04:26:31.269Z,91.90
2023-03-06T04:29:00.149Z,91.97
2023-03-06T04:31:28.640Z,92.03
2023-03-06T04:33:57.273Z,92.17
2023-03-06T04:36:29.381Z,92.27
2023-03-06T04:39:00.975Z,92.43
2023-03-06T04:41:29.611Z,92.47
2023-03-06T04:43:57.789Z,92.53
2023-03-06T04:46:25.956Z,92.38
2023-03-06T04:48:54.133Z,92.35
2023-03-06T04:51:22.509Z,92.36
2023-03-06T04:53:50.679Z,92.48
2023-03-06T04:56:18.851Z,92.66
2023-03-06T04:58:47.027Z,92.64
2023-03-06T05:01:15.210Z,92.74
2023-03-06T05:03:43.377Z,92.81
2023-03-06T05:06:11.543Z,92.94
2023-03-06T05:08:40.230Z,93.05
2023-03-06T05:11:08.408Z,93.13
2023-03-06T05:13:36.872Z,93.47
2023-03-06T05:16:06.482Z,93.36
2023-03-06T05:18:35.379Z,93.44
2023-03-06T05:21:04.880Z,93.49
2023-03-06T05:23:35.706Z,93.58
2023-03-06T05:26:09.394Z,93.59
2023-03-06T05:28:38.095Z,93.36
2023-03-06T05:31:07.019Z,93.42
2023-03-06T05:33:36.279Z,93.37
2023-03-06T05:36:05.166Z,93.59
2023-03-06T05:38:33.337Z,93.33
2023-03-06T05:41:01.513Z,93.47
2023-03-06T05:43:29.900Z,93.43
2023-03-06T05:46:03.023Z,93.57
2023-03-06T05:48:31.882Z,93.53
2023-03-06T05:51:01.302Z,93.60
2023-03-06T05:53:30.469Z,93.28
2023-03-06T05:56:01.011Z,93.24
2023-03-06T05:58:29.778Z,93.32
2023-03-06T06:00:58.168Z,93.45
2023-03-06T06:03:26.645Z,93.44
2023-03-06T06:05:54.826Z,93.24
2023-03-06T06:08:22.980Z,93.40
2023-03-06T06:10:53.295Z,93.25
2023-03-06T06:13:21.684Z,93.15
2023-03-06T06:15:49.884Z,93.23
2023-03-06T06:18:18.252Z,93.20
2023-03-06T06:20:46.411Z,93.43
2023-03-06T06:23:14.569Z,93.10
2023-03-06T06:25:42.741Z,93.27
2023-03-06T06:28:12.549Z,93.37
2023-03-06T06:30:40.726Z,93.37
2023-03-06T06:33:09.209Z,93.07
2023-03-06T06:35:37.618Z,93.08
2023-03-06T06:38:05.890Z,93.07
2023-03-06T06:40:34.050Z,93.28
2023-03-06T06:43:02.253Z,93.14
2023-03-06T06:45:30.373Z,93.37
2023-03-06T06:47:58.783Z,93.23
2023-03-06T06:50:27.236Z,93.22
2023-03-06T06:52:55.608Z,93.04
2023-03-06T06:55:23.785Z,92.97
2023-03-06T06:57:51.955Z,93.29
2023-03-06T07:00:20.843Z,93.18
2023-03-06T07:02:49.531Z,92.93
2023-03-06T07:05:21.727Z,93.06
2023-03-06T07:07:51.498Z,92.81
2023-03-06T07:10:21.096Z,92.87
2023-03-06T07:12:49.483Z,92.83
2023-03-06T07:15:18.802Z,92.52
2023-03-06T07:17:49.815Z,92.57
2023-03-06T07:20:20.147Z,92.65
2023-03-06T07:22:51.636Z,92.52
2023-03-06T07:25:20.908Z,92.59
2023-03-06T07:27:53.918Z,92.53
2023-03-06T07:30:23.887Z,92.38
2023-03-06T07:32:54.134Z,92.46
2023-03-06T07:35:23.020Z,92.40
2023-03-06T07:37:52.097Z,92.47
2023-03-06T07:40:20.908Z,92.45
2023-03-06T07:42:49.272Z,92.51
2023-03-06T07:45:20.255Z,92.27
2023-03-06T07:47:52.779Z,92.25
2023-03-06T07:50:21.666Z,92.23
2023-03-06T07:52:50.670Z,92.18
2023-03-06T07:55:18.836Z,92.47
2023-03-06T07:57:50.698Z,92.41
2023-03-06T08:00:19.680Z,92.37
2023-03-06T08:02:49.658Z,92.34
2023-03-06T08:05:18.176Z,92.26
2023-03-06T08:07:46.453Z,92.07
2023-03-06T08:10:16.159Z,92.19
2023-03-06T08:12:44.566Z,92.35
2023-03-06T08:15:13.218Z,92.29
2023-03-06T08:17:41.476Z,92.08
2023-03-06T08:20:12.571Z,92.14
2023-03-06T08:22:41.133Z,91.66
2023-03-06T08:25:10.381Z,91.47
2023-03-06T08:27:38.591Z,91.74
2023-03-06T08:30:08.267Z,91.37
2023-03-06T08:32:37.348Z,91.28
2023-03-06T08:35:06.281Z,91.25
2023-03-06T08:37:34.470Z,91.32
2023-03-06T08:40:04.838Z,91.46
2023-03-06T08:42:33.463Z,91.20
2023-03-06T08:45:01.624Z,91.17
2023-03-06T08:47:29.794Z,91.05
2023-03-06T08:50:00.573Z,91.22
2023-03-06T08:52:29.126Z,90.75
2023-03-06T08:54:58.222Z,91.14
2023-03-06T08:57:26.598Z,90.87
2023-03-06T08:59:55.060Z,90.54
2023-03-06T09:02:23.197Z,90.67
2023-03-06T09:04:51.745Z,90.33
2023-03-06T09:07:19.890Z,89.93
2023-03-06T09:09:48.065Z,90.15
2023-03-06T09:12:16.537Z,90.17
2023-03-06T09:14:44.720Z,89.77
2023-03-06T09:17:13.085Z,89.56
2023-03-06T09:19:41.259Z,89.18
2023-03-06T09:22:09.427Z,89.07
2023-03-06T09:24:37.603Z,88.57
2023-03-06T09:27:05.775Z,88.31
2023-03-06T09:29:34.053Z,87.80
2023-03-06T09:32:02.287Z,87.60
2023-03-06T09:34:30.601Z,87.78
2023-03-06T09:36:59.078Z,87.74
2023-03-06T09:39:27.484Z,87.48
2023-03-06T09:41:57.555Z,86.96
2023-03-06T09:44:28.305Z,87.28
2023-03-06T09:47:08.563Z,86.54
2023-03-06T09:49:36.733Z,85.47
2023-03-06T09:52:23.334Z,85.30
2023-03-06T09:55:11.654Z,85.45
2023-03-06T09:58:20.912Z,84.79
2023-03-06T10:01:04.232Z,84.83
2023-03-06T10:03:39.696Z,85.23
2023-03-06T10:06:34.178Z,84.63
2023-03-06T10:09:02.249Z,83.78
2023-03-06T10:11:39.608Z,83.48
2023-03-06T10:14:16.808Z,83.29
2023-03-06T10:16:44.986Z,82.44
2023-03-06T10:19:20.738Z,82.27
2023-03-06T10:21:54.746Z,82.64
2023-03-06T10:24:29.061Z,82.48
2023-03-06T10:27:29.495Z,82.98
2023-03-06T10:30:16.202Z,83.20
2023-03-06T10:32:55.400Z,82.84
2023-03-06T10:35:53.525Z,81.43
2023-03-06T10:38:32.019Z,81.10
2023-03-06T10:41:07.032Z,80.53
2023-03-06T10:43:36.704Z,80.03
2023-03-06T10:46:07.019Z,80.05
2023-03-06T10:48:36.493Z,80.04
2023-03-06T10:51:23.709Z,79.96
2023-03-06T10:54:00.894Z,78.64
2023-03-06T10:56:35.507Z,78.85
2023-03-06T10:59:17.413Z,78.57
2023-03-06T11:01:50.557Z,77.93
2023-03-06T11:04:27.825Z,78.75
2023-03-06T11:07:06.399Z,78.79
2023-03-06T11:09:35.690Z,77.45
2023-03-06T11:12:20.971Z,76.31
2023-03-06T11:15:10.237Z,76.79
2023-03-06T11:18:00.319Z,77.18
2023-03-06T11:20:54.505Z,76.49
2023-03-06T11:23:42.494Z,76.99
2023-03-06T11:26:16.579Z,76.61
2023-03-06T11:28:54.880Z,76.52
2023-03-06T11:31:25.916Z,75.99
2023-03-06T11:34:00.629Z,75.52
2023-03-06T11:36:41.586Z,74.91
2023-03-06T11:39:41.705Z,74.17
2023-03-06T11:42:23.908Z,74.06
2023-03-06T11:45:13.994Z,74.59
2023-03-06T11:48:13.198Z,74.78
2023-03-06T11:50:54.164Z,74.69
2023-03-06T11:53:49.064Z,74.62
2023-03-06T11:56:20.316Z,74.07
2023-03-06T11:59:07.945Z,73.68
2023-03-06T12:02:11.604Z,73.64
2023-03-06T12:04:48.215Z,73.46
2023-03-06T12:07:58.269Z,73.60
2023-03-06T12:10:42.311Z,73.42
2023-03-06T12:13:19.596Z,73.68
2023-03-06T12:16:24.621Z,73.37
2023-03-06T12:19:11.440Z,72.71
2023-03-06T12:21:51.901Z,73.04
2023-03-06T12:24:32.987Z,73.23
2023-03-06T12:27:04.325Z,72.78
2023-03-06T12:29:42.120Z,72.92
2023-03-06T12:32:21.592Z,72.86
2023-03-06T12:34:49.830Z,72.67
2023-03-06T12:37:34.391Z,72.53
2023-03-06T12:40:07.065Z,72.33
2023-03-06T12:43:02.272Z,71.82
2023-03-06T12:45:32.907Z,71.95
2023-03-06T12:48:02.203Z,71.68
2023-03-06T12:50:37.250Z,71.86
2023-03-06T12:53:14.520Z,71.53
2023-03-06T12:55:45.392Z,72.05
2023-03-06T12:58:29.211Z,73.00
2023-03-06T13:01:04.295Z,73.65
2023-03-06T13:03:48.067Z,73.47
2023-03-06T13:06:39.234Z,73.48
2023-03-06T13:09:32.131Z,74.01
2023-03-06T13:12:13.720Z,74.26
2023-03-06T13:14:48.690Z,74.27
2023-03-06T13:17:32.801Z,74.19
2023-03-06T13:20:16.536Z,74.15
2023-03-06T13:22:47.181Z,74.33
2023-03-06T13:25:21.476Z,74.59
2023-03-06T13:27:52.521Z,75.57
2023-03-06T13:30:39.079Z,76.23
2023-03-06T13:33:22.758Z,76.86
2023-03-06T13:36:19.821Z,76.90
2023-03-06T13:38:51.625Z,77.59
2023-03-06T13:41:23.112Z,77.42
2023-03-06T13:43:56.079Z,76.97
2023-03-06T13:46:28.241Z,76.58
2023-03-06T13:49:21.109Z,76.24
2023-03-06T13:52:23.280Z,75.53
2023-03-06T13:54:54.114Z,74.93
2023-03-06T13:57:42.054Z,74.80
2023-03-06T14:00:29.061Z,74.08
2023-03-06T14:03:35.839Z,73.69
2023-03-06T14:06:36.192Z,73.77
2023-03-06T14:09:06.681Z,73.04
2023-03-06T14:11:35.782Z,72.75
2023-03-06T14:14:04.064Z,72.91
2023-03-06T14:16:49.224Z,73.04
2023-03-06T14:19:19.406Z,72.74
2023-03-06T14:21:56.340Z,72.69
2023-03-06T14:24:38.728Z,72.40
2023-03-06T14:27:07.412Z,71.90
2023-03-06T14:29:35.488Z,71.81
2023-03-06T14:32:06.173Z,71.86
2023-03-06T14:34:40.035Z,71.89
2023-03-06T14:37:20.383Z,71.46
2023-03-06T14:39:49.374Z,71.21
2023-03-06T14:42:19.504Z,70.83
2023-03-06T14:44:49.188Z,70.89
2023-03-06T14:47:28.767Z,70.86
2023-03-06T14:50:25.587Z,70.56
2023-03-06T14:53:21.504Z,70.75
2023-03-06T14:56:01.531Z,71.04
2023-03-06T14:58:40.456Z,71.07
2023-03-06T15:01:10.190Z,71.21
2023-03-06T15:03:50.551Z,71.24
2023-03-06T15:06:22.205Z,71.25
2023-03-06T15:09:05.885Z,71.26
2023-03-06T15:11:51.934Z,71.26
2023-03-06T15:14:41.196Z,71.37
2023-03-06T15:17:21.344Z,71.45
2023-03-06T15:19:52.341Z,71.54
2023-03-06T15:22:39.089Z,71.88
2023-03-06T15:25:10.231Z,71.79
2023-03-06T15:27:38.610Z,71.67
2023-03-06T15:30:29.414Z,71.85
2023-03-06T15:33:20.138Z,72.22
2023-03-06T15:36:06.218Z,72.95
2023-03-06T15:38:38.622Z,73.74
2023-03-06T15:41:19.033Z,74.32
2023-03-06T15:43:47.207Z,74.80
2023-03-06T15:46:15.398Z,75.32
2023-03-06T15:49:00.281Z,75.88
2023-03-06T15:51:30.695Z,76.53
2023-03-06T15:54:11.214Z,76.94
2023-03-06T15:56:42.350Z,77.63
2023-03-06T15:59:22.430Z,77.99
2023-03-06T16:01:51.213Z,78.57
2023-03-06T16:04:20.063Z,78.95
2023-03-06T16:06:48.276Z,79.21
2023-03-06T16:09:16.446Z,79.39
2023-03-06T16:11:45.056Z,79.38
2023-03-06T16:14:21.197Z,79.58
2023-03-06T16:16:50.854Z,79.98
2023-03-06T16:19:29.253Z,80.16
2023-03-06T16:21:57.484Z,80.59
2023-03-06T16:24:26.776Z,80.64
2023-03-06T16:26:55.565Z,80.90
2023-03-06T16:29:25.794Z,81.43
2023-03-06T16:31:56.636Z,81.74
2023-03-06T16:34:25.426Z,81.81
2023-03-06T16:36:53.699Z,82.35
2023-03-06T16:39:23.300Z,82.64
2023-03-06T16:41:52.260Z,83.01
2023-03-06T16:44:21.465Z,83.07
2023-03-06T16:46:50.356Z,83.19
2023-03-06T16:49:22.582Z,82.91
2023-03-06T16:51:52.651Z,82.69
2023-03-06T16:54:23.475Z,82.90
2023-03-06T16:56:51.965Z,82.82
2023-03-06T16:59:20.126Z,82.77
2023-03-06T17:01:48.446Z,83.31
2023-03-06T17:04:16.677Z,83.56
2023-03-06T17:06:44.751Z,83.78
2023-03-06T17:09:14.469Z,83.73
2023-03-06T17:11:46.869Z,84.00
2023-03-06T17:14:15.206Z,83.99
2023-03-06T17:16:43.702Z,83.84
2023-03-06T17:19:14.595Z,84.14
2023-03-06T17:21:44.021Z,84.19
2023-03-06T17:24:12.196Z,84.50
2023-03-06T17:26:40.478Z,84.54
2023-03-06T17:29:09.668Z,84.81
2023-03-06T17:31:37.939Z,84.78
2023-03-06T17:34:06.418Z,84.79
2023-03-06T17:36:34.733Z,85.02
2023-03-06T17:39:03.181Z,85.15
2023-03-06T17:41:33.040Z,85.34
2023-03-06T17:44:02.080Z,85.53
2023-03-06T17:46:32.494Z,85.62
2023-03-06T17:49:00.885Z,85.54
2023-03-06T17:51:29.500Z,85.62
2023-03-06T17:53:57.657Z,85.74
2023-03-06T17:56:26.526Z,85.95
2023-03-06T17:58:55.520Z,85.98
2023-03-06T18:01:30.073Z,86.10
2023-03-06T18:03:58.208Z,86.11
2023-03-06T18:06:27.915Z,86.35
2023-03-06T18:08:56.291Z,86.70
2023-03-06T18:11:24.464Z,86.68
2023-03-06T18:13:53.040Z,86.79
2023-03-06T18:16:23.939Z,86.69
2023-03-06T18:18:53.584Z,86.69
2023-03-06T18:21:23.401Z,86.68
2023-03-06T18:23:51.568Z,86.67
2023-03-06T18:26:29.367Z,86.91
2023-03-06T18:29:01.495Z,86.92
2023-03-06T18:31:35.056Z,87.03
2023-03-06T18:34:06.654Z,87.16
2023-03-06T18:36:35.781Z,87.30
2023-03-06T18:39:06.338Z,87.28
2023-03-06T18:41:34.998Z,87.53
2023-03-06T18:44:03.876Z,87.61
2023-03-06T18:46:34.866Z,87.52
2023-03-06T18:49:04.018Z,87.28
2023-03-06T18:51:32.696Z,87.27
2023-03-06T18:54:02.204Z,86.92
2023-03-06T18:56:30.886Z,86.78
2023-03-06T18:59:04.175Z,86.78
2023-03-06T19:01:33.299Z,86.97
2023-03-06T19:04:03.282Z,87.20
2023-03-06T19:06:31.883Z,87.19
2023-03-06T19:09:01.877Z,87.09
2023-03-06T19:11:30.370Z,87.09
2023-03-06T19:13:59.631Z,87.38
2023-03-06T19:16:30.328Z,87.32
2023-03-06T19:18:59.301Z,87.37
2023-03-06T19:21:28.786Z,87.25
2023-03-06T19:23:58.806Z,87.23
2023-03-06T19:26:28.239Z,87.39
2023-03-06T19:28:56.626Z,87.26
2023-03-06T19:31:27.478Z,87.34
2023-03-06T19:33:57.063Z,87.77
2023-03-06T19:36:28.860Z,88.16
2023-03-06T19:38:59.060Z,88.03
2023-03-06T19:41:27.895Z,87.97
2023-03-06T19:43:59.026Z,87.96
2023-03-06T19:46:27.743Z,88.09
2023-03-06T19:48:57.942Z,88.05
2023-03-06T19:51:27.038Z,87.85
2023-03-06T19:53:56.341Z,87.83
2023-03-06T19:56:27.381Z,87.90
2023-03-06T19:58:55.958Z,87.85
2023-03-06T20:01:26.345Z,87.90
2023-03-06T20:04:05.185Z,88.25
2023-03-06T20:06:35.912Z,88.29
2023-03-06T20:09:07.392Z,88.17
2023-03-06T20:11:35.567Z,88.34
2023-03-06T20:14:05.363Z,88.51
2023-03-06T20:16:34.453Z,88.31
2023-03-06T20:19:02.873Z,88.22
2023-03-06T20:21:33.506Z,88.16
2023-03-06T20:24:01.528Z,88.28
2023-03-06T20:26:31.134Z,88.25
2023-03-06T20:28:59.410Z,88.23
2023-03-06T20:31:29.392Z,88.33
2023-03-06T20:33:59.244Z,88.38
2023-03-06T20:36:33.035Z,88.41
2023-03-06T20:39:02.855Z,88.62
2023-03-06T20:41:32.062Z,88.65
2023-03-06T20:44:02.142Z,88.72
2023-03-06T20:46:30.798Z,88.98
2023-03-06T20:48:59.716Z,88.88
2023-03-06T20:51:33.481Z,89.01
2023-03-06T20:54:02.434Z,89.06
2023-03-06T20:56:33.175Z,88.66
2023-03-06T20:59:01.335Z,88.62
2023-03-06T21:01:31.996Z,88.78
2023-03-06T21:04:00.839Z,88.71
2023-03-06T21:06:29.132Z,88.62
2023-03-06T21:08:58.530Z,88.72
2023-03-06T21:11:27.212Z,88.94
2023-03-06T21:13:56.113Z,88.90
2023-03-06T21:16:25.927Z,89.01
2023-03-06T21:18:55.414Z,88.96
2023-03-06T21:21:27.885Z,88.98
2023-03-06T21:23:56.167Z,89.22
2023-03-06T21:26:26.686Z,89.12
2023-03-06T21:28:57.226Z,89.01
2023-03-06T21:31:26.046Z,88.80
2023-03-06T21:33:54.797Z,88.72
2023-03-06T21:36:23.072Z,88.88
2023-03-06T21:38:52.468Z,89.08
2023-03-06T21:41:24.205Z,89.01
2023-03-06T21:43:59.554Z,89.16
2023-03-06T21:46:28.473Z,89.22
2023-03-06T21:48:58.063Z,89.34
2023-03-06T21:51:27.258Z,89.34
2023-03-06T21:53:56.046Z,89.47
2023-03-06T21:56:25.665Z,89.32
2023-03-06T21:58:55.269Z,89.36
2023-03-06T22:01:25.969Z,89.49
2023-03-06T22:03:54.841Z,89.61
2023-03-06T22:06:26.021Z,89.94
2023-03-06T22:08:59.139Z,89.74
2023-03-06T22:11:31.455Z,89.89
2023-03-06T22:14:00.363Z,90.16
2023-03-06T22:16:28.694Z,90.44
2023-03-06T22:18:57.329Z,90.64
2023-03-06T22:21:25.711Z,90.86
2023-03-06T22:23:57.482Z,90.74
2023-03-06T22:26:29.730Z,90.82
2023-03-06T22:28:58.012Z,90.85
2023-03-06T22:31:28.997Z,90.66
2023-03-06T22:33:59.684Z,90.62
2023-03-06T22:36:30.573Z,90.70
2023-03-06T22:39:00.718Z,90.73
2023-03-06T22:41:29.116Z,90.91
2023-03-06T22:43:58.618Z,90.92
2023-03-06T22:46:27.706Z,90.98
2023-03-06T22:48:57.622Z,91.04
2023-03-06T22:51:27.335Z,91.24
2023-03-06T22:53:55.883Z,91.25
2023-03-06T22:56:24.896Z,91.20
2023-03-06T22:58:53.070Z,91.48
2023-03-06T23:01:23.570Z,91.40
2023-03-06T23:03:52.478Z,91.34
2023-03-06T23:06:26.385Z,91.38
2023-03-06T23:09:00.319Z,91.38
2023-03-06T23:11:29.497Z,91.52
2023-03-06T23:14:18.331Z,91.43
2023-03-06T23:17:05.155Z,91.60
2023-03-06T23:19:53.302Z,91.85
2023-03-06T23:22:40.309Z,91.87
2023-03-06T23:25:27.197Z,91.92
2023-03-06T23:27:56.018Z,91.85
2023-03-06T23:30:24.287Z,91.85
2023-03-06T23:32:52.458Z,91.84
2023-03-06T23:35:20.957Z,91.81
2023-03-06T23:37:49.106Z,91.59
2023-03-06T23:40:18.003Z,91.62
2023-03-06T23:42:46.171Z,91.55
2023-03-06T23:45:14.552Z,91.64
2023-03-06T23:47:42.719Z,91.58
2023-03-06T23:50:11.811Z,91.76
2023-03-06T23:52:40.496Z,91.81
2023-03-06T23:55:09.189Z,91.59
2023-03-06T23:57:37.355Z,91.72
